Time;durP1;ratioP1;P1;durP2;ratioP2;P2;SDS_P1;SDS_P2;PMS_P1;PMS_P2;Temp;Humidity;BMP_temperature;BMP_pressure;BME280_temperature;BME280_humidity;BME280_pressure;Samples;Min_cycle;Max_cycle;Signal;HPM_P1;HPM_P2
2023/06/06 00:01:45;;;;;;;9.82;5.43;;;;;;;16.26;79.29;101620.13;5010193;28;20042;-72
2023/06/06 00:04:11;;;;;;;11.43;5.43;;;;;;;16.22;79.44;101628.47;5012139;28;20057;-72
2023/06/06 00:06:37;;;;;;;12.68;5.78;;;;;;;16.23;79.35;101627.50;5012460;28;20029;-72
2023/06/06 00:09:04;;;;;;;9.25;5.05;;;;;;;16.14;79.84;101631.94;5007275;28;20072;-72
2023/06/06 00:11:30;;;;;;;14.63;5.90;;;;;;;16.10;79.93;101628.84;5008033;28;20025;-72
2023/06/06 00:13:56;;;;;;;10.80;5.20;;;;;;;16.11;79.97;101624.47;4995225;28;20507;-72
2023/06/06 00:16:23;;;;;;;12.30;6.22;;;;;;;16.02;80.63;101626.28;5011308;28;20049;-72
2023/06/06 00:18:52;;;;;;;16.00;6.13;;;;;;;16.02;80.42;101626.28;5000178;28;20422;-72
2023/06/06 00:21:18;;;;;;;11.85;5.60;;;;;;;15.94;80.63;101619.31;4993286;28;20104;-72
2023/06/06 00:23:45;;;;;;;9.43;5.90;;;;;;;15.91;80.92;101626.69;4992583;28;21739;-72
2023/06/06 00:26:10;;;;;;;10.30;5.68;;;;;;;15.89;80.67;101623.41;4994254;28;20053;-72
2023/06/06 00:28:37;;;;;;;11.52;5.47;;;;;;;15.85;80.95;101622.13;4977621;28;20502;-72
2023/06/06 00:31:02;;;;;;;11.48;5.78;;;;;;;15.84;80.89;101621.34;4994536;28;20034;-72
2023/06/06 00:33:27;;;;;;;10.38;5.82;;;;;;;15.72;81.54;101620.03;5001634;28;20045;-73
2023/06/06 00:35:53;;;;;;;10.50;5.95;;;;;;;15.61;82.08;101623.81;5015027;28;20515;-72
2023/06/06 00:38:18;;;;;;;10.68;5.60;;;;;;;15.61;82.16;101621.22;5015087;28;20045;-73
2023/06/06 00:40:44;;;;;;;13.13;6.35;;;;;;;15.56;82.48;101616.50;5018450;28;20030;-72
2023/06/06 00:43:10;;;;;;;11.57;6.03;;;;;;;15.57;82.42;101618.13;5018677;28;20041;-72
2023/06/06 00:45:35;;;;;;;16.45;6.43;;;;;;;15.54;82.51;101626.31;4997899;28;20480;-72
2023/06/06 00:48:02;;;;;;;14.40;6.80;;;;;;;15.49;82.72;101626.00;5001275;28;20079;-72
2023/06/06 00:50:28;;;;;;;16.73;6.55;;;;;;;15.46;82.96;101633.34;5013752;28;20045;-73
2023/06/06 00:52:55;;;;;;;12.15;6.00;;;;;;;15.45;82.59;101627.31;4986838;28;20037;-72
2023/06/06 00:55:20;;;;;;;16.48;6.20;;;;;;;15.36;83.38;101630.94;5001420;28;20031;-73
2023/06/06 00:57:48;;;;;;;14.43;6.93;;;;;;;15.32;83.54;101630.47;4998922;28;20065;-72
2023/06/06 01:00:15;;;;;;;11.27;6.00;;;;;;;15.28;83.86;101620.53;4994567;28;20038;-72
2023/06/06 01:02:43;;;;;;;14.05;6.18;;;;;;;15.25;83.55;101626.88;4997363;28;20045;-72
2023/06/06 01:05:10;;;;;;;13.55;6.22;;;;;;;15.23;83.81;101631.44;5031058;28;20148;-72
2023/06/06 01:07:37;;;;;;;15.63;6.65;;;;;;;15.19;84.33;101627.53;5018607;28;20539;-72
2023/06/06 01:10:05;;;;;;;12.77;6.85;;;;;;;15.25;83.64;101626.88;5013709;28;20037;-72
2023/06/06 01:12:55;;;;;;;17.73;8.10;;;;;;;15.19;84.11;101627.53;5028333;28;20041;-72
2023/06/06 01:16:05;;;;;;;8.63;5.70;;;;;;;15.09;84.40;101632.97;4985102;28;20049;-73
2023/06/06 01:18:34;;;;;;;12.60;6.07;;;;;;;15.08;84.54;101630.50;4990183;28;20069;-72
2023/06/06 01:21:01;;;;;;;13.65;7.25;;;;;;;15.01;85.07;101630.34;4999814;28;20036;-72
2023/06/06 01:23:27;;;;;;;13.63;6.65;;;;;;;14.95;85.01;101626.59;5024102;28;20092;-72
2023/06/06 01:25:53;;;;;;;15.35;6.35;;;;;;;14.82;85.81;101625.47;4993524;28;20264;-72
2023/06/06 01:28:19;;;;;;;10.60;6.55;;;;;;;14.79;86.01;101629.22;4998038;28;20041;-72
2023/06/06 01:30:47;;;;;;;17.92;7.15;;;;;;;14.72;86.77;101625.63;5002019;28;20021;-72
2023/06/06 01:33:12;;;;;;;16.15;6.75;;;;;;;14.71;86.36;101622.22;5016128;28;20057;-72
2023/06/06 01:36:10;;;;;;;14.77;7.82;;;;;;;14.72;86.37;101626.44;5001283;28;20040;-72
2023/06/06 01:38:43;;;;;;;12.75;6.90;;;;;;;14.72;86.15;101623.81;5029250;28;20073;-72
2023/06/06 01:41:10;;;;;;;17.23;8.07;;;;;;;14.65;86.71;101624.66;5013075;28;20041;-72
2023/06/06 01:43:39;;;;;;;18.25;7.00;;;;;;;14.60;86.64;101628.56;4995826;28;20045;-72
2023/06/06 01:46:07;;;;;;;15.48;7.68;;;;;;;14.54;87.10;101631.81;4978693;28;20034;-72
2023/06/06 01:48:34;;;;;;;18.48;8.38;;;;;;;14.49;87.49;101628.03;4997807;28;20220;-72
2023/06/06 01:50:59;;;;;;;14.10;7.70;;;;;;;14.46;87.71;101629.16;4984116;28;20040;-72
2023/06/06 01:53:25;;;;;;;11.25;7.28;;;;;;;14.33;88.38;101626.22;4978787;28;20046;-72
2023/06/06 01:55:51;;;;;;;16.10;7.85;;;;;;;14.29;88.38;101624.91;4984666;28;20053;-72
2023/06/06 01:58:18;;;;;;;12.35;7.28;;;;;;;14.30;88.37;101635.19;5009123;28;20096;-72
2023/06/06 02:00:44;;;;;;;13.52;7.45;;;;;;;14.30;88.25;101621.34;4984327;28;20389;-72
2023/06/06 02:03:11;;;;;;;16.02;7.82;;;;;;;14.27;88.42;101619.03;5014842;28;20030;-72
2023/06/06 02:05:38;;;;;;;17.23;8.70;;;;;;;14.23;88.45;101623.75;5020145;28;20029;-72
2023/06/06 02:08:04;;;;;;;18.70;8.32;;;;;;;14.15;88.71;101627.16;5018710;28;20037;-73
2023/06/06 02:10:31;;;;;;;17.38;7.57;;;;;;;14.10;89.31;101626.00;5012861;28;20403;-72
2023/06/06 02:12:56;;;;;;;14.05;7.60;;;;;;;14.05;89.43;101623.84;5015119;28;20033;-72
2023/06/06 02:15:26;;;;;;;13.38;7.53;;;;;;;13.96;89.66;101632.66;5016035;28;20041;-72
2023/06/06 02:17:52;;;;;;;15.55;7.97;;;;;;;13.94;90.20;101629.38;5016884;28;20389;-72
2023/06/06 02:20:18;;;;;;;15.50;8.48;;;;;;;13.89;90.32;101624.63;5016634;28;20330;-72
2023/06/06 02:22:43;;;;;;;20.70;9.23;;;;;;;13.85;90.22;101627.72;5016384;28;20037;-73
2023/06/06 02:25:09;;;;;;;16.08;8.18;;;;;;;13.78;91.09;101630.94;4995366;28;20048;-72
2023/06/06 02:27:35;;;;;;;17.17;8.15;;;;;;;13.74;91.38;101628.81;5002583;28;20636;-72
2023/06/06 02:30:09;;;;;;;14.70;7.97;;;;;;;13.72;91.01;101628.16;5018080;28;20095;-72
2023/06/06 02:32:34;;;;;;;17.60;8.73;;;;;;;13.68;91.37;101632.06;5034859;23;20056;-68
2023/06/06 02:35:03;;;;;;;16.88;7.93;;;;;;;13.69;91.13;101634.47;5014089;28;20040;-67
2023/06/06 02:37:32;;;;;;;20.15;9.48;;;;;;;13.71;91.03;101635.16;5004599;28;20062;-67
2023/06/06 02:39:58;;;;;;;16.38;8.93;;;;;;;13.72;90.94;101626.34;5020446;28;20026;-67
2023/06/06 02:42:25;;;;;;;14.77;8.50;;;;;;;13.75;90.55;101618.25;5008444;28;20067;-67
2023/06/06 02:44:51;;;;;;;14.73;8.05;;;;;;;13.66;91.14;101632.19;4978933;28;20045;-67
2023/06/06 02:47:17;;;;;;;16.02;8.70;;;;;;;13.67;90.99;101625.19;5002499;28;20044;-67
2023/06/06 02:49:42;;;;;;;16.27;8.73;;;;;;;13.63;91.35;101628.09;5021441;28;20419;-67
2023/06/06 02:52:08;;;;;;;14.32;8.20;;;;;;;13.67;91.14;101633.00;5001840;28;20041;-68
2023/06/06 02:54:33;;;;;;;14.10;8.30;;;;;;;13.65;90.80;101635.75;5003969;28;20045;-67
2023/06/06 02:57:00;;;;;;;20.35;8.65;;;;;;;13.55;91.22;101637.69;5000314;28;20025;-68
2023/06/06 02:59:26;;;;;;;15.85;8.82;;;;;;;13.59;90.91;101636.41;5000123;28;20342;-68
2023/06/06 03:01:51;;;;;;;16.60;8.73;;;;;;;13.53;91.08;101639.63;5002272;28;20111;-67
2023/06/06 03:04:17;;;;;;;15.23;8.30;;;;;;;13.52;91.47;101638.78;5001799;28;20034;-67
2023/06/06 03:06:43;;;;;;;17.75;8.60;;;;;;;13.41;91.65;101645.09;5003496;28;21530;-68
2023/06/06 03:09:09;;;;;;;16.50;9.05;;;;;;;13.35;92.00;101642.28;4999533;28;20152;-68
2023/06/06 03:11:35;;;;;;;18.00;8.73;;;;;;;13.30;92.16;101650.56;5002751;28;20432;-67
2023/06/06 03:14:02;;;;;;;16.30;9.05;;;;;;;13.31;92.22;101649.59;4994453;28;20124;-67
2023/06/06 03:16:30;;;;;;;20.92;8.60;;;;;;;13.30;92.42;101657.50;5016218;28;20026;-68
2023/06/06 03:18:56;;;;;;;18.67;8.75;;;;;;;13.28;92.33;101655.09;5001070;28;20045;-68
2023/06/06 03:21:22;;;;;;;19.08;8.98;;;;;;;13.23;92.58;101655.53;5000639;28;20491;-67
2023/06/06 03:23:49;;;;;;;17.35;9.27;;;;;;;13.16;92.77;101656.28;5000283;28;20076;-67
2023/06/06 03:26:15;;;;;;;16.50;8.32;;;;;;;13.15;92.85;101657.28;5002305;28;20065;-67
2023/06/06 03:28:41;;;;;;;14.05;8.02;;;;;;;13.15;92.70;101658.09;5019437;28;20053;-68
2023/06/06 03:31:10;;;;;;;15.52;8.68;;;;;;;13.18;92.54;101655.16;5002496;28;20037;-68
2023/06/06 03:33:46;;;;;;;16.58;8.45;;;;;;;13.15;92.38;101655.47;4996698;28;20033;-67
2023/06/06 03:36:12;;;;;;;17.95;8.77;;;;;;;13.07;92.72;101655.41;5016389;28;20044;-68
2023/06/06 03:38:38;;;;;;;16.60;8.45;;;;;;;13.12;92.85;101655.78;4990692;28;20034;-67
2023/06/06 03:41:04;;;;;;;17.90;8.50;;;;;;;13.11;92.69;101656.75;4999457;28;20025;-67
2023/06/06 03:43:32;;;;;;;15.32;8.80;;;;;;;13.01;93.30;101653.41;5012586;28;20184;-68
2023/06/06 03:45:58;;;;;;;16.52;9.00;;;;;;;13.04;93.31;101659.13;4999549;28;20112;-67
2023/06/06 03:48:24;;;;;;;16.20;9.07;;;;;;;13.06;92.95;101653.78;4979239;28;20033;-67
2023/06/06 03:50:49;;;;;;;14.70;7.63;;;;;;;13.07;92.89;101645.00;4986277;28;20218;-68
2023/06/06 03:53:16;;;;;;;14.23;8.30;;;;;;;13.02;92.79;101644.66;5004423;28;20057;-68
2023/06/06 03:55:44;;;;;;;19.30;8.85;;;;;;;13.05;92.76;101652.13;5004329;28;20025;-68
2023/06/06 03:58:10;;;;;;;17.75;10.15;;;;;;;12.99;92.89;101645.75;4996961;28;20069;-68
2023/06/06 04:00:37;;;;;;;15.38;9.23;;;;;;;12.96;93.30;101637.41;5017174;28;20075;-67
2023/06/06 04:03:03;;;;;;;18.52;8.82;;;;;;;12.94;93.49;101639.34;5000379;28;20508;-68
2023/06/06 04:05:30;;;;;;;17.17;9.55;;;;;;;12.96;93.51;101640.88;4985866;28;20028;-67
2023/06/06 04:07:56;;;;;;;19.67;9.32;;;;;;;12.94;93.22;101644.56;5001111;28;20080;-67
2023/06/06 04:10:21;;;;;;;20.65;9.82;;;;;;;12.86;93.50;101642.72;5005133;28;20029;-68
2023/06/06 04:12:47;;;;;;;15.73;9.48;;;;;;;12.87;93.66;101644.38;5020863;28;20108;-68
2023/06/06 04:15:12;;;;;;;18.83;9.88;;;;;;;12.86;93.96;101658.34;5004078;28;20442;-67
2023/06/06 04:17:39;;;;;;;17.85;8.80;;;;;;;12.84;93.42;101649.88;5004271;28;20368;-67
2023/06/06 04:20:08;;;;;;;17.63;8.90;;;;;;;12.86;93.70;101647.94;5000641;28;20037;-67
2023/06/06 04:22:34;;;;;;;15.82;9.32;;;;;;;12.80;93.81;101653.75;5004201;28;20045;-67
2023/06/06 04:25:00;;;;;;;17.35;9.77;;;;;;;12.79;94.00;101657.28;5004569;28;20064;-67
2023/06/06 04:27:26;;;;;;;22.15;9.85;;;;;;;12.69;94.37;101657.38;5004400;28;20660;-67
2023/06/06 04:29:57;;;;;;;19.00;9.43;;;;;;;12.66;94.73;101655.91;5001017;28;20534;-67
2023/06/06 04:32:23;;;;;;;19.15;8.63;;;;;;;12.69;95.04;101656.56;5004316;28;20120;-67
2023/06/06 04:34:57;;;;;;;19.38;10.15;;;;;;;12.76;94.37;101665.41;5005092;28;20423;-67
2023/06/06 04:37:24;;;;;;;19.27;9.13;;;;;;;12.74;93.87;101664.75;5009133;28;20029;-67
2023/06/06 04:39:52;;;;;;;17.63;10.00;;;;;;;12.74;94.59;101669.97;5004908;28;20043;-66
2023/06/06 04:42:21;;;;;;;20.35;9.63;;;;;;;12.80;94.11;101669.34;5003757;28;20048;-67
2023/06/06 04:44:46;;;;;;;21.15;10.02;;;;;;;12.81;93.99;101677.03;5024205;28;20077;-68
2023/06/06 04:47:14;;;;;;;23.00;10.75;;;;;;;12.85;93.84;101673.16;5005801;28;20030;-68
2023/06/06 04:49:40;;;;;;;16.60;9.02;;;;;;;12.87;93.82;101669.59;5007040;28;20124;-68
2023/06/06 04:52:12;;;;;;;18.75;9.27;;;;;;;12.87;93.34;101670.41;4989199;28;20064;-68
2023/06/06 04:54:38;;;;;;;16.80;9.60;;;;;;;12.90;93.79;101664.06;5021237;28;20045;-68
2023/06/06 04:57:06;;;;;;;22.17;9.73;;;;;;;12.97;93.35;101672.91;5004565;28;20027;-67
2023/06/06 04:59:33;;;;;;;18.33;9.93;;;;;;;13.02;93.32;101665.47;5003499;28;20041;-67
2023/06/06 05:02:01;;;;;;;19.10;9.30;;;;;;;12.99;93.31;101668.38;5005682;28;20095;-67
2023/06/06 05:04:29;;;;;;;18.48;10.23;;;;;;;12.99;93.37;101668.38;5019120;28;20059;-67
2023/06/06 05:06:56;;;;;;;17.27;9.52;;;;;;;13.03;92.93;101661.88;5005024;28;20037;-67
2023/06/06 05:09:21;;;;;;;22.08;9.55;;;;;;;13.14;92.78;101666.03;5021984;28;20400;-67
2023/06/06 05:11:49;;;;;;;16.48;8.32;;;;;;;13.23;92.53;101659.94;5003156;28;20034;-67
2023/06/06 05:14:15;;;;;;;19.20;8.48;;;;;;;13.34;91.98;101664.09;5002289;28;20120;-67
2023/06/06 05:16:40;;;;;;;23.67;9.50;;;;;;;13.31;91.47;101667.00;5005653;28;20518;-67
2023/06/06 05:19:06;;;;;;;21.13;9.40;;;;;;;13.44;90.89;101670.81;5021664;28;20069;-67
2023/06/06 05:21:33;;;;;;;20.50;9.05;;;;;;;13.46;90.78;101667.28;5003894;28;20099;-68
2023/06/06 05:23:58;;;;;;;18.00;8.85;;;;;;;13.55;90.31;101674.97;5001829;28;20049;-67
2023/06/06 05:26:25;;;;;;;18.48;10.20;;;;;;;13.62;89.42;101669.97;5022211;28;20044;-68
2023/06/06 05:28:51;;;;;;;22.95;9.05;;;;;;;13.70;89.73;101669.19;5005295;28;20060;-68
2023/06/06 05:31:20;;;;;;;20.13;9.43;;;;;;;13.79;89.04;101668.28;5019789;28;20037;-67
2023/06/06 05:33:46;;;;;;;19.95;9.98;;;;;;;13.90;88.63;101664.53;5002210;28;20046;-68
2023/06/06 05:36:12;;;;;;;25.17;10.07;;;;;;;14.10;87.59;101667.72;5003291;28;20055;-67
2023/06/06 05:38:37;;;;;;;19.17;9.50;;;;;;;14.17;86.79;101663.53;5006509;28;20103;-67
2023/06/06 05:41:03;;;;;;;22.25;10.38;;;;;;;14.30;87.14;101663.88;5002513;28;22546;-68
2023/06/06 05:43:31;;;;;;;20.60;10.45;;;;;;;14.37;85.97;101667.50;5005446;28;20053;-67
2023/06/06 05:45:56;;;;;;;22.90;10.18;;;;;;;14.45;85.39;101663.25;5017363;28;20076;-68
2023/06/06 05:48:22;;;;;;;22.38;8.98;;;;;;;14.53;84.74;101663.28;5019469;28;20072;-67
2023/06/06 05:50:48;;;;;;;19.27;8.55;;;;;;;14.81;84.11;101666.44;5004304;28;20022;-68
2023/06/06 05:53:13;;;;;;;21.80;9.10;;;;;;;14.86;83.12;101669.38;5021496;28;20037;-68
2023/06/06 05:55:39;;;;;;;23.30;10.68;;;;;;;14.99;82.38;101667.09;5020997;28;20033;-67
2023/06/06 05:58:05;;;;;;;18.63;10.05;;;;;;;15.03;82.07;101669.34;5022156;28;20060;-68
2023/06/06 06:00:33;;;;;;;18.05;9.43;;;;;;;15.10;81.85;101671.13;5020572;28;20199;-68
2023/06/06 06:03:00;;;;;;;21.73;10.05;;;;;;;15.26;80.90;101664.28;5003647;28;20507;-68
2023/06/06 06:05:29;;;;;;;20.42;9.80;;;;;;;15.42;80.20;101672.06;5005756;28;20021;-68
2023/06/06 06:07:59;;;;;;;20.50;9.68;;;;;;;15.63;79.18;101668.09;5021446;28;20037;-68
2023/06/06 06:10:25;;;;;;;19.70;9.63;;;;;;;15.56;79.24;101666.16;5001595;28;20430;-68
2023/06/06 06:12:50;;;;;;;20.95;10.43;;;;;;;15.76;78.17;101666.63;5004190;28;20033;-68
2023/06/06 06:15:16;;;;;;;18.48;10.05;;;;;;;15.90;77.42;101662.50;5002486;28;20621;-67
2023/06/06 06:17:41;;;;;;;20.23;9.45;;;;;;;15.96;77.08;101672.25;5004553;28;20099;-68
2023/06/06 06:20:09;;;;;;;21.08;9.35;;;;;;;16.15;76.08;101667.59;5021417;28;20038;-68
2023/06/06 06:22:37;;;;;;;21.20;10.10;;;;;;;16.32;75.59;101676.97;5020121;28;20041;-68
2023/06/06 06:25:05;;;;;;;22.63;9.77;;;;;;;16.30;75.45;101665.06;4990018;28;20041;-68
2023/06/06 06:27:31;;;;;;;15.93;8.85;;;;;;;16.53;73.78;101663.25;5002081;28;20491;-68
2023/06/06 06:29:57;;;;;;;19.63;9.80;;;;;;;16.58;74.02;101664.56;5001689;28;20045;-68
2023/06/06 06:32:23;;;;;;;21.55;9.82;;;;;;;16.66;73.77;101667.13;5002473;28;20033;-67
2023/06/06 06:34:49;;;;;;;19.98;8.93;;;;;;;16.95;72.93;101674.28;5015067;28;20073;-68
2023/06/06 06:37:16;;;;;;;18.52;10.38;;;;;;;17.22;71.86;101672.09;5020073;28;20283;-68
2023/06/06 06:39:42;;;;;;;20.92;9.65;;;;;;;17.50;70.93;101677.53;5004201;28;20116;-68
2023/06/06 06:42:08;;;;;;;16.25;9.43;;;;;;;17.74;69.79;101670.38;4984153;28;20419;-68
2023/06/06 06:44:45;;;;;;;23.83;10.35;;;;;;;17.74;68.64;101678.25;4987522;28;20064;-68
2023/06/06 06:47:11;;;;;;;56.22;26.60;;;;;;;17.76;68.19;101679.69;5003741;28;20523;-68
2023/06/06 06:49:40;;;;;;;20.42;11.88;;;;;;;18.25;67.18;101683.50;5000415;28;20049;-68
2023/06/06 06:52:07;;;;;;;18.35;9.43;;;;;;;18.32;66.23;101686.22;5017949;28;20535;-68
2023/06/06 06:54:35;;;;;;;16.92;9.70;;;;;;;18.42;65.93;101682.31;5018108;28;21144;-68
2023/06/06 06:57:02;;;;;;;16.38;9.68;;;;;;;18.75;64.85;101688.88;5019058;28;20475;-68
2023/06/06 06:59:28;;;;;;;17.30;8.65;;;;;;;19.04;63.71;101682.66;5018165;28;20444;-68
2023/06/06 07:01:55;;;;;;;17.35;8.55;;;;;;;19.33;63.16;101683.50;4999874;28;20060;-68
2023/06/06 07:04:21;;;;;;;16.48;8.73;;;;;;;19.45;61.59;101681.94;4983745;28;20175;-68
2023/06/06 07:06:46;;;;;;;19.35;9.18;;;;;;;19.77;61.78;101675.25;5020940;28;20037;-68
2023/06/06 07:09:13;;;;;;;17.05;9.00;;;;;;;19.84;60.70;101672.66;5018205;28;20115;-68
2023/06/06 07:11:39;;;;;;;17.73;9.35;;;;;;;19.99;60.58;101681.22;5014441;28;20396;-68
2023/06/06 07:14:05;;;;;;;17.15;9.98;;;;;;;19.68;60.44;101684.28;4994784;28;20530;-68
2023/06/06 07:16:31;;;;;;;20.13;9.88;;;;;;;20.06;59.28;101678.59;5017629;28;20085;-68
2023/06/06 07:18:57;;;;;;;24.02;9.68;;;;;;;20.34;58.82;101681.13;4985448;28;20037;-68
2023/06/06 07:21:25;;;;;;;22.20;10.38;;;;;;;20.39;57.89;101686.56;5017487;28;20420;-68
2023/06/06 07:23:51;;;;;;;19.52;9.90;;;;;;;20.30;58.42;101679.06;5015120;28;20049;-68
2023/06/06 07:26:17;;;;;;;17.85;8.70;;;;;;;20.58;57.75;101679.72;5016748;28;20602;-68
2023/06/06 07:28:49;;;;;;;16.30;9.15;;;;;;;20.85;57.13;101676.31;4998495;28;20415;-68
2023/06/06 07:31:15;;;;;;;17.33;9.07;;;;;;;20.99;56.29;101678.75;5014947;28;20021;-68
2023/06/06 07:33:40;;;;;;;17.17;8.65;;;;;;;21.17;56.11;101670.22;4998943;28;20052;-69
2023/06/06 07:36:07;;;;;;;20.02;8.45;;;;;;;21.61;54.92;101670.53;5015321;28;20037;-68
2023/06/06 07:38:33;;;;;;;17.83;9.15;;;;;;;21.61;54.50;101667.09;5017598;28;20044;-68
2023/06/06 07:40:59;;;;;;;21.08;9.27;;;;;;;21.83;53.81;101662.31;5020862;28;20029;-68
2023/06/06 07:43:24;;;;;;;17.25;8.10;;;;;;;22.25;53.62;101666.19;5000690;28;20049;-68
2023/06/06 07:45:50;;;;;;;23.70;9.35;;;;;;;22.28;52.16;101662.31;4999401;28;20037;-69
2023/06/06 07:48:16;;;;;;;15.07;8.27;;;;;;;22.60;51.92;101659.66;5019377;28;20049;-69
2023/06/06 07:50:42;;;;;;;16.77;9.23;;;;;;;22.33;51.91;101665.13;5018230;28;20064;-68
2023/06/06 07:53:08;;;;;;;16.42;8.18;;;;;;;22.60;51.71;101659.66;5013929;28;20141;-68
2023/06/06 07:55:35;;;;;;;16.95;8.68;;;;;;;22.47;50.92;101666.69;5018829;28;20044;-68
2023/06/06 07:58:01;;;;;;;15.98;8.48;;;;;;;22.46;51.68;101665.03;5001510;28;20048;-68
2023/06/06 08:00:27;;;;;;;18.15;9.20;;;;;;;22.30;50.97;101673.47;5015155;28;20044;-68
2023/06/06 08:02:52;;;;;;;17.42;8.68;;;;;;;22.29;51.71;101664.75;5002356;28;20038;-71
2023/06/06 08:05:18;;;;;;;19.02;8.63;;;;;;;22.43;51.61;101669.94;4986249;28;20057;-69
2023/06/06 08:07:44;;;;;;;17.73;8.68;;;;;;;22.51;51.54;101662.56;5002231;28;20034;-68
2023/06/06 08:10:10;;;;;;;16.30;9.60;;;;;;;22.79;50.31;101673.72;5002116;28;20064;-68
2023/06/06 08:12:37;;;;;;;21.48;9.85;;;;;;;22.74;50.89;101664.63;5003048;28;20087;-68
2023/06/06 08:15:03;;;;;;;18.58;8.50;;;;;;;23.05;50.79;101670.88;5001516;28;20100;-68
2023/06/06 08:17:29;;;;;;;18.88;8.85;;;;;;;23.41;49.26;101665.84;5015055;28;20037;-68
2023/06/06 08:19:55;;;;;;;17.88;10.35;;;;;;;23.43;49.32;101667.25;4998535;28;20042;-68
2023/06/06 08:22:20;;;;;;;18.65;8.43;;;;;;;23.62;48.16;101661.94;5018853;28;20049;-68
2023/06/06 08:24:45;;;;;;;15.60;8.45;;;;;;;23.76;48.24;101663.38;5019276;28;20115;-68
2023/06/06 08:27:11;;;;;;;14.30;7.55;;;;;;;23.66;48.32;101668.41;5016346;28;20165;-68
2023/06/06 08:29:36;;;;;;;16.45;9.05;;;;;;;23.55;48.34;101662.03;5017344;28;20491;-69
2023/06/06 08:32:04;;;;;;;15.63;9.43;;;;;;;23.02;49.62;101660.72;5015620;22;20012;-71
2023/06/06 08:34:29;;;;;;;23.88;8.93;;;;;;;23.20;49.62;101662.59;4999318;28;20074;-70
2023/06/06 08:36:55;;;;;;;19.95;9.25;;;;;;;23.33;48.76;101646.56;4997375;28;20025;-70
2023/06/06 08:39:21;;;;;;;25.75;10.45;;;;;;;23.33;49.67;101654.53;4982516;28;20045;-71
2023/06/06 08:41:54;;;;;;;14.52;8.63;;;;;;;23.27;49.06;101662.53;4984010;28;20129;-71
2023/06/06 08:44:21;;;;;;;15.57;8.68;;;;;;;23.45;48.15;101661.72;4964262;28;20508;-71
2023/06/06 08:46:50;;;;;;;16.33;8.80;;;;;;;23.81;48.37;101650.34;4946812;28;20503;-69
2023/06/06 08:49:19;;;;;;;20.08;9.15;;;;;;;24.11;47.54;101654.81;4960323;28;20053;-69
2023/06/06 08:51:50;;;;;;;21.90;9.00;;;;;;;24.31;47.58;101669.63;4952664;28;20041;-69
2023/06/06 08:54:20;;;;;;;17.45;8.85;;;;;;;24.42;46.08;101666.19;4977136;28;20521;-69
2023/06/06 08:56:46;;;;;;;18.50;8.93;;;;;;;24.02;47.85;101662.25;4962897;28;20038;-69
2023/06/06 08:59:13;;;;;;;20.33;9.30;;;;;;;24.00;49.03;101674.13;4960686;28;20042;-69
2023/06/06 09:01:39;;;;;;;15.95;8.82;;;;;;;24.00;48.48;101668.84;4981322;28;20117;-69
2023/06/06 09:04:09;;;;;;;14.95;8.93;;;;;;;24.34;47.82;101664.66;4977667;28;20097;-69
2023/06/06 09:06:38;;;;;;;16.15;8.48;;;;;;;24.37;47.33;101666.03;4975202;28;20033;-68
2023/06/06 09:09:07;;;;;;;14.98;8.55;;;;;;;24.47;47.17;101663.66;4979506;28;20044;-69
2023/06/06 09:11:33;;;;;;;18.13;8.63;;;;;;;24.40;46.97;101663.75;4978580;28;20069;-69
2023/06/06 09:13:58;;;;;;;17.30;8.68;;;;;;;24.35;47.38;101660.16;4972834;28;20113;-69
2023/06/06 09:16:26;;;;;;;17.33;8.57;;;;;;;24.56;47.17;101662.28;4984006;28;20034;-68
2023/06/06 09:18:52;;;;;;;17.33;8.35;;;;;;;24.82;46.27;101660.25;4959946;28;20034;-69
2023/06/06 09:21:18;;;;;;;18.63;8.80;;;;;;;24.95;46.19;101654.72;4980983;28;20038;-68
2023/06/06 09:23:44;;;;;;;21.13;8.85;;;;;;;25.00;46.83;101656.69;4967735;28;20915;-68
2023/06/06 09:26:19;;;;;;;13.77;8.05;;;;;;;25.14;46.63;101650.06;4978408;28;20098;-69
2023/06/06 09:28:45;;;;;;;14.23;8.05;;;;;;;24.97;46.30;101655.28;4981616;28;20437;-69
2023/06/06 09:31:25;;;;;;;15.73;8.60;;;;;;;24.82;45.39;101655.75;4973785;28;20036;-69
2023/06/06 09:33:55;;;;;;;16.88;6.88;;;;;;;24.97;46.20;101651.84;4969087;28;20034;-69
2023/06/06 09:36:29;;;;;;;16.02;8.30;;;;;;;25.26;46.12;101652.75;4980688;28;20034;-69
2023/06/06 09:39:03;;;;;;;19.98;8.57;;;;;;;25.18;45.77;101643.25;4981896;28;20037;-69
2023/06/06 09:41:28;;;;;;;18.10;9.48;;;;;;;25.09;45.99;101638.56;4967223;28;20046;-69
2023/06/06 09:43:55;;;;;;;15.48;8.35;;;;;;;25.05;46.79;101641.69;4984127;28;20109;-69
2023/06/06 09:46:20;;;;;;;25.40;9.57;;;;;;;24.81;46.35;101642.75;4983299;28;20042;-69
2023/06/06 09:48:55;;;;;;;19.90;8.32;;;;;;;25.23;46.96;101634.66;4967393;28;20046;-69
2023/06/06 09:51:21;;;;;;;14.98;7.68;;;;;;;25.49;45.79;101635.16;4977614;28;20030;-69
2023/06/06 09:53:50;;;;;;;12.45;7.35;;;;;;;25.80;45.05;101633.88;4966510;28;20058;-68
2023/06/06 09:56:22;;;;;;;19.27;8.55;;;;;;;25.64;44.53;101633.59;4978932;28;20038;-69
2023/06/06 09:58:54;;;;;;;15.07;8.68;;;;;;;25.80;45.00;101640.00;4947579;28;20042;-69
2023/06/06 10:01:31;;;;;;;14.85;7.45;;;;;;;26.05;45.37;101638.88;4965391;28;20389;-69
2023/06/06 10:03:57;;;;;;;17.92;7.95;;;;;;;26.08;43.01;101630.41;4989214;28;20504;-69
2023/06/06 10:06:24;;;;;;;19.00;8.35;;;;;;;26.18;43.38;101630.59;4971475;28;20026;-69
2023/06/06 10:08:53;;;;;;;15.75;7.82;;;;;;;26.30;43.24;101630.53;4966213;28;20054;-69
2023/06/06 10:11:21;;;;;;;12.77;5.93;;;;;;;26.47;44.25;101627.06;4982493;28;20022;-69
2023/06/06 10:13:48;;;;;;;12.95;7.57;;;;;;;26.39;43.63;101623.75;4958291;28;20108;-69
2023/06/06 10:16:16;;;;;;;17.52;7.28;;;;;;;25.78;43.72;101623.50;4985076;28;20399;-69
2023/06/06 10:18:44;;;;;;;10.98;6.55;;;;;;;26.15;44.71;101620.44;4980583;28;20666;-69
2023/06/06 10:21:12;;;;;;;17.75;7.28;;;;;;;26.40;44.50;101622.69;4981641;28;20049;-69
2023/06/06 10:23:37;;;;;;;13.80;6.85;;;;;;;26.67;42.80;101621.25;4945866;28;20046;-69
2023/06/06 10:26:05;;;;;;;12.88;7.20;;;;;;;26.46;42.55;101620.94;4980549;28;20041;-69
2023/06/06 10:28:42;;;;;;;17.30;6.88;;;;;;;26.46;43.12;101612.94;4957017;28;20520;-69
2023/06/06 10:31:16;;;;;;;12.48;6.05;;;;;;;26.55;43.48;101616.00;4980248;28;20030;-69
2023/06/06 10:33:53;;;;;;;11.65;5.78;;;;;;;26.59;43.19;101615.31;4966671;28;20043;-69
2023/06/06 10:36:18;;;;;;;10.55;7.18;;;;;;;26.64;43.68;101608.47;4961571;28;20030;-69
2023/06/06 10:39:18;;;;;;;12.07;7.60;;;;;;;26.45;43.15;101603.38;4982554;28;20038;-68
2023/06/06 10:41:53;;;;;;;12.93;6.13;;;;;;;26.72;42.75;101608.03;4963946;28;20961;-69
2023/06/06 10:44:20;;;;;;;13.63;6.72;;;;;;;26.77;42.13;101598.28;4954165;28;20046;-69
2023/06/06 10:46:48;;;;;;;12.48;6.30;;;;;;;26.46;43.50;101594.34;4979277;28;20026;-69
2023/06/06 10:49:14;;;;;;;12.18;6.57;;;;;;;26.63;42.17;101599.66;4952284;28;20097;-69
2023/06/06 10:51:39;;;;;;;8.73;5.32;;;;;;;27.00;42.38;101605.22;4983168;28;20039;-70
2023/06/06 10:54:15;;;;;;;7.78;5.40;;;;;;;27.04;40.58;101594.91;4989148;28;20050;-69
2023/06/06 10:56:52;;;;;;;10.30;5.72;;;;;;;26.65;42.36;101602.88;4971542;28;20487;-69
2023/06/06 10:59:36;;;;;;;13.65;6.43;;;;;;;26.53;41.75;101600.31;4980129;28;20056;-69
2023/06/06 11:02:11;;;;;;;11.25;5.65;;;;;;;26.66;41.28;101593.88;4965066;28;20089;-69
2023/06/06 11:04:39;;;;;;;10.80;5.82;;;;;;;26.65;42.30;101597.56;4974301;28;20542;-69
2023/06/06 11:07:15;;;;;;;14.48;5.68;;;;;;;27.06;41.51;101594.66;4963809;28;20026;-69
2023/06/06 11:09:42;;;;;;;11.43;5.95;;;;;;;27.00;40.66;101596.44;4962769;28;20026;-69
2023/06/06 11:12:13;;;;;;;12.55;6.75;;;;;;;26.83;41.46;101591.19;4976098;28;20034;-69
2023/06/06 11:15:01;;;;;;;12.15;6.15;;;;;;;26.58;41.47;101592.41;4964058;28;20057;-69
2023/06/06 11:17:29;;;;;;;9.05;4.78;;;;;;;26.88;40.36;101595.75;4982775;28;20023;-69
2023/06/06 11:19:55;;;;;;;10.90;5.03;;;;;;;26.92;40.87;101583.59;4986565;28;20042;-69